sensor_id;sensor_type;location;lat;lon;timestamp;P1;durP1;ratioP1;P2;durP2;ratioP2
49041;SDS011;34859;51.608;11.462;2022-08-21T00:01:29;6.30;;;5.93;;
49041;SDS011;34859;51.608;11.462;2022-08-21T00:04:14;7.30;;;6.70;;
49041;SDS011;34859;51.608;11.462;2022-08-21T00:06:58;7.03;;;6.63;;
49041;SDS011;34859;51.608;11.462;2022-08-21T00:09:43;6.57;;;6.07;;
49041;SDS011;34859;51.608;11.462;2022-08-21T00:12:24;7.47;;;6.72;;
49041;SDS011;34859;51.608;11.462;2022-08-21T00:15:09;6.83;;;6.33;;
49041;SDS011;34859;51.608;11.462;2022-08-21T00:17:55;6.45;;;6.15;;
49041;SDS011;34859;51.608;11.462;2022-08-21T00:23:24;7.10;;;6.47;;
49041;SDS011;34859;51.608;11.462;2022-08-21T00:26:09;7.38;;;6.97;;
49041;SDS011;34859;51.608;11.462;2022-08-21T00:28:53;4.95;;;3.95;;
49041;SDS011;34859;51.608;11.462;2022-08-21T00:31:37;3.07;;;2.30;;
49041;SDS011;34859;51.608;11.462;2022-08-21T00:34:21;2.72;;;1.95;;
49041;SDS011;34859;51.608;11.462;2022-08-21T00:37:05;2.58;;;2.47;;
49041;SDS011;34859;51.608;11.462;2022-08-21T00:39:50;2.60;;;2.40;;
49041;SDS011;34859;51.608;11.462;2022-08-21T00:42:31;2.85;;;2.65;;
49041;SDS011;34859;51.608;11.462;2022-08-21T00:45:15;2.50;;;2.40;;
49041;SDS011;34859;51.608;11.462;2022-08-21T00:47:59;3.03;;;2.90;;
49041;SDS011;34859;51.608;11.462;2022-08-21T00:50:49;3.53;;;3.33;;
49041;SDS011;34859;51.608;11.462;2022-08-21T00:53:39;2.90;;;2.80;;
49041;SDS011;34859;51.608;11.462;2022-08-21T00:56:27;3.53;;;2.55;;
49041;SDS011;34859;51.608;11.462;2022-08-21T00:59:12;3.30;;;3.10;;
49041;SDS011;34859;51.608;11.462;2022-08-21T01:01:57;3.20;;;2.90;;
49041;SDS011;34859;51.608;11.462;2022-08-21T01:04:41;2.87;;;2.77;;
49041;SDS011;34859;51.608;11.462;2022-08-21T01:07:25;5.07;;;3.08;;
49041;SDS011;34859;51.608;11.462;2022-08-21T01:10:09;6.13;;;2.70;;
49041;SDS011;34859;51.608;11.462;2022-08-21T01:12:54;2.70;;;2.50;;
49041;SDS011;34859;51.608;11.462;2022-08-21T01:15:42;3.13;;;2.83;;
49041;SDS011;34859;51.608;11.462;2022-08-21T01:18:33;2.55;;;2.05;;
49041;SDS011;34859;51.608;11.462;2022-08-21T01:21:18;2.58;;;2.38;;
49041;SDS011;34859;51.608;11.462;2022-08-21T01:24:04;3.95;;;2.80;;
49041;SDS011;34859;51.608;11.462;2022-08-21T01:26:49;3.17;;;2.55;;
49041;SDS011;34859;51.608;11.462;2022-08-21T01:32:26;4.47;;;2.28;;
49041;SDS011;34859;51.608;11.462;2022-08-21T01:35:11;2.10;;;2.00;;
49041;SDS011;34859;51.608;11.462;2022-08-21T01:37:57;2.30;;;1.98;;
49041;SDS011;34859;51.608;11.462;2022-08-21T01:40:38;3.53;;;2.28;;
49041;SDS011;34859;51.608;11.462;2022-08-21T01:43:22;2.83;;;2.00;;
49041;SDS011;34859;51.608;11.462;2022-08-21T01:46:06;4.93;;;2.10;;
49041;SDS011;34859;51.608;11.462;2022-08-21T01:48:51;2.28;;;2.08;;
49041;SDS011;34859;51.608;11.462;2022-08-21T01:51:35;2.45;;;2.25;;
49041;SDS011;34859;51.608;11.462;2022-08-21T01:54:19;3.30;;;2.35;;
49041;SDS011;34859;51.608;11.462;2022-08-21T01:57:04;2.05;;;1.95;;
49041;SDS011;34859;51.608;11.462;2022-08-21T01:59:48;2.42;;;2.22;;
49041;SDS011;34859;51.608;11.462;2022-08-21T02:02:32;2.08;;;1.98;;
49041;SDS011;34859;51.608;11.462;2022-08-21T02:05:17;2.47;;;2.05;;
49041;SDS011;34859;51.608;11.462;2022-08-21T02:08:02;3.55;;;2.58;;
49041;SDS011;34859;51.608;11.462;2022-08-21T02:10:46;3.55;;;2.38;;
49041;SDS011;34859;51.608;11.462;2022-08-21T02:13:30;3.53;;;2.75;;
49041;SDS011;34859;51.608;11.462;2022-08-21T02:16:14;7.63;;;3.03;;
49041;SDS011;34859;51.608;11.462;2022-08-21T02:18:58;4.45;;;2.92;;
49041;SDS011;34859;51.608;11.462;2022-08-21T02:21:42;5.07;;;3.07;;
49041;SDS011;34859;51.608;11.462;2022-08-21T02:24:27;3.58;;;2.78;;
49041;SDS011;34859;51.608;11.462;2022-08-21T02:27:11;2.67;;;2.47;;
49041;SDS011;34859;51.608;11.462;2022-08-21T02:29:56;5.60;;;2.67;;
49041;SDS011;34859;51.608;11.462;2022-08-21T02:32:41;4.57;;;2.65;;
49041;SDS011;34859;51.608;11.462;2022-08-21T02:35:26;2.67;;;2.22;;
49041;SDS011;34859;51.608;11.462;2022-08-21T02:38:13;3.75;;;2.10;;
49041;SDS011;34859;51.608;11.462;2022-08-21T02:41:12;3.58;;;2.33;;
49041;SDS011;34859;51.608;11.462;2022-08-21T02:43:58;3.45;;;2.00;;
49041;SDS011;34859;51.608;11.462;2022-08-21T02:46:42;6.18;;;2.35;;
49041;SDS011;34859;51.608;11.462;2022-08-21T02:49:26;2.13;;;2.00;;
49041;SDS011;34859;51.608;11.462;2022-08-21T02:52:10;4.70;;;2.30;;
49041;SDS011;34859;51.608;11.462;2022-08-21T02:54:55;4.25;;;2.60;;
49041;SDS011;34859;51.608;11.462;2022-08-21T02:57:39;4.05;;;2.45;;
49041;SDS011;34859;51.608;11.462;2022-08-21T03:00:24;5.82;;;3.10;;
49041;SDS011;34859;51.608;11.462;2022-08-21T03:03:10;3.83;;;2.95;;
49041;SDS011;34859;51.608;11.462;2022-08-21T03:05:56;4.00;;;3.58;;
49041;SDS011;34859;51.608;11.462;2022-08-21T03:08:40;2.67;;;2.58;;
49041;SDS011;34859;51.608;11.462;2022-08-21T03:11:25;3.15;;;2.92;;
49041;SDS011;34859;51.608;11.462;2022-08-21T03:16:54;3.90;;;3.03;;
49041;SDS011;34859;51.608;11.462;2022-08-21T03:19:38;3.08;;;2.25;;
49041;SDS011;34859;51.608;11.462;2022-08-21T03:22:19;2.47;;;2.28;;
49041;SDS011;34859;51.608;11.462;2022-08-21T03:25:04;6.00;;;2.80;;
49041;SDS011;34859;51.608;11.462;2022-08-21T03:27:48;3.20;;;2.95;;
49041;SDS011;34859;51.608;11.462;2022-08-21T03:30:32;2.97;;;2.77;;
49041;SDS011;34859;51.608;11.462;2022-08-21T03:33:16;5.10;;;2.58;;
49041;SDS011;34859;51.608;11.462;2022-08-21T03:36:05;4.50;;;3.00;;
49041;SDS011;34859;51.608;11.462;2022-08-21T03:38:51;2.78;;;2.55;;
49041;SDS011;34859;51.608;11.462;2022-08-21T03:41:35;6.07;;;2.40;;
49041;SDS011;34859;51.608;11.462;2022-08-21T03:44:19;6.20;;;2.90;;
49041;SDS011;34859;51.608;11.462;2022-08-21T03:47:03;2.92;;;2.67;;
49041;SDS011;34859;51.608;11.462;2022-08-21T03:49:45;2.80;;;2.60;;
49041;SDS011;34859;51.608;11.462;2022-08-21T03:52:29;4.72;;;2.88;;
49041;SDS011;34859;51.608;11.462;2022-08-21T03:57:58;4.25;;;3.00;;
49041;SDS011;34859;51.608;11.462;2022-08-21T04:00:44;2.95;;;2.75;;
49041;SDS011;34859;51.608;11.462;2022-08-21T04:03:28;3.20;;;3.00;;
49041;SDS011;34859;51.608;11.462;2022-08-21T04:06:13;3.33;;;3.03;;
49041;SDS011;34859;51.608;11.462;2022-08-21T04:08:57;7.20;;;2.97;;
49041;SDS011;34859;51.608;11.462;2022-08-21T04:11:41;3.75;;;3.03;;
49041;SDS011;34859;51.608;11.462;2022-08-21T04:14:25;5.38;;;2.72;;
49041;SDS011;34859;51.608;11.462;2022-08-21T04:17:09;7.40;;;3.13;;
49041;SDS011;34859;51.608;11.462;2022-08-21T04:19:50;5.65;;;3.35;;
49041;SDS011;34859;51.608;11.462;2022-08-21T04:22:34;2.95;;;2.60;;
49041;SDS011;34859;51.608;11.462;2022-08-21T04:25:19;6.03;;;3.10;;
49041;SDS011;34859;51.608;11.462;2022-08-21T04:28:05;7.43;;;2.60;;
49041;SDS011;34859;51.608;11.462;2022-08-21T04:30:50;4.97;;;2.90;;
49041;SDS011;34859;51.608;11.462;2022-08-21T04:33:35;2.70;;;2.50;;
49041;SDS011;34859;51.608;11.462;2022-08-21T04:36:19;5.72;;;2.90;;
49041;SDS011;34859;51.608;11.462;2022-08-21T04:39:04;7.82;;;3.13;;
49041;SDS011;34859;51.608;11.462;2022-08-21T04:41:49;8.27;;;2.83;;
49041;SDS011;34859;51.608;11.462;2022-08-21T04:44:33;4.53;;;3.00;;
49041;SDS011;34859;51.608;11.462;2022-08-21T04:47:17;2.53;;;2.33;;
49041;SDS011;34859;51.608;11.462;2022-08-21T04:50:01;7.47;;;2.50;;
49041;SDS011;34859;51.608;11.462;2022-08-21T04:52:46;3.63;;;2.85;;
49041;SDS011;34859;51.608;11.462;2022-08-21T04:55:30;3.95;;;2.88;;
49041;SDS011;34859;51.608;11.462;2022-08-21T04:58:16;3.03;;;2.78;;
49041;SDS011;34859;51.608;11.462;2022-08-21T05:01:03;5.53;;;2.80;;
49041;SDS011;34859;51.608;11.462;2022-08-21T05:03:45;3.42;;;2.63;;
49041;SDS011;34859;51.608;11.462;2022-08-21T05:06:33;7.20;;;2.78;;
49041;SDS011;34859;51.608;11.462;2022-08-21T05:09:20;4.30;;;2.45;;
49041;SDS011;34859;51.608;11.462;2022-08-21T05:12:07;2.90;;;2.70;;
49041;SDS011;34859;51.608;11.462;2022-08-21T05:14:51;3.83;;;2.47;;
49041;SDS011;34859;51.608;11.462;2022-08-21T05:17:35;3.20;;;3.00;;
49041;SDS011;34859;51.608;11.462;2022-08-21T05:20:19;4.63;;;2.75;;
49041;SDS011;34859;51.608;11.462;2022-08-21T05:23:07;3.58;;;3.03;;
49041;SDS011;34859;51.608;11.462;2022-08-21T05:25:53;5.38;;;2.88;;
49041;SDS011;34859;51.608;11.462;2022-08-21T05:28:38;4.80;;;2.70;;
49041;SDS011;34859;51.608;11.462;2022-08-21T05:31:22;6.07;;;3.40;;
49041;SDS011;34859;51.608;11.462;2022-08-21T05:34:07;8.10;;;3.95;;
49041;SDS011;34859;51.608;11.462;2022-08-21T05:36:51;44.13;;;17.77;;
49041;SDS011;34859;51.608;11.462;2022-08-21T05:39:35;18.45;;;9.10;;
49041;SDS011;34859;51.608;11.462;2022-08-21T05:42:19;7.40;;;4.80;;
49041;SDS011;34859;51.608;11.462;2022-08-21T05:45:03;7.53;;;3.30;;
49041;SDS011;34859;51.608;11.462;2022-08-21T05:47:48;3.40;;;2.83;;
49041;SDS011;34859;51.608;11.462;2022-08-21T05:50:32;5.50;;;2.45;;
49041;SDS011;34859;51.608;11.462;2022-08-21T05:53:16;3.22;;;3.03;;
49041;SDS011;34859;51.608;11.462;2022-08-21T05:56:02;6.22;;;2.92;;
49041;SDS011;34859;51.608;11.462;2022-08-21T06:01:31;3.13;;;2.58;;
49041;SDS011;34859;51.608;11.462;2022-08-21T06:04:15;2.85;;;2.70;;
49041;SDS011;34859;51.608;11.462;2022-08-21T06:06:59;3.05;;;2.50;;
49041;SDS011;34859;51.608;11.462;2022-08-21T06:09:43;2.90;;;2.58;;
49041;SDS011;34859;51.608;11.462;2022-08-21T06:12:27;2.40;;;2.20;;
49041;SDS011;34859;51.608;11.462;2022-08-21T06:15:12;4.50;;;2.22;;
49041;SDS011;34859;51.608;11.462;2022-08-21T06:17:56;4.20;;;2.28;;
49041;SDS011;34859;51.608;11.462;2022-08-21T06:20:40;4.20;;;2.20;;
49041;SDS011;34859;51.608;11.462;2022-08-21T06:23:25;2.65;;;2.45;;
49041;SDS011;34859;51.608;11.462;2022-08-21T06:26:09;4.75;;;2.00;;
49041;SDS011;34859;51.608;11.462;2022-08-21T06:28:55;2.17;;;1.88;;
49041;SDS011;34859;51.608;11.462;2022-08-21T06:31:39;4.25;;;2.17;;
49041;SDS011;34859;51.608;11.462;2022-08-21T06:34:23;6.17;;;1.93;;
49041;SDS011;34859;51.608;11.462;2022-08-21T06:37:07;5.45;;;1.83;;
49041;SDS011;34859;51.608;11.462;2022-08-21T06:42:36;2.88;;;1.73;;
49041;SDS011;34859;51.608;11.462;2022-08-21T06:45:20;4.25;;;1.90;;
49041;SDS011;34859;51.608;11.462;2022-08-21T06:50:47;3.28;;;2.05;;
49041;SDS011;34859;51.608;11.462;2022-08-21T06:53:31;3.22;;;1.77;;
49041;SDS011;34859;51.608;11.462;2022-08-21T06:56:16;7.10;;;2.00;;
49041;SDS011;34859;51.608;11.462;2022-08-21T07:01:45;3.47;;;1.85;;
49041;SDS011;34859;51.608;11.462;2022-08-21T07:04:29;4.97;;;2.55;;
49041;SDS011;34859;51.608;11.462;2022-08-21T07:07:11;4.50;;;1.90;;
49041;SDS011;34859;51.608;11.462;2022-08-21T07:09:55;1.83;;;1.73;;
49041;SDS011;34859;51.608;11.462;2022-08-21T07:12:39;3.15;;;1.75;;
49041;SDS011;34859;51.608;11.462;2022-08-21T07:15:23;3.13;;;1.73;;
49041;SDS011;34859;51.608;11.462;2022-08-21T07:18:07;2.80;;;1.90;;
49041;SDS011;34859;51.608;11.462;2022-08-21T07:20:51;4.37;;;1.73;;
49041;SDS011;34859;51.608;11.462;2022-08-21T07:23:42;4.10;;;2.03;;
49041;SDS011;34859;51.608;11.462;2022-08-21T07:26:29;2.15;;;1.45;;
49041;SDS011;34859;51.608;11.462;2022-08-21T07:29:14;3.53;;;2.00;;
49041;SDS011;34859;51.608;11.462;2022-08-21T07:31:58;3.53;;;1.80;;
49041;SDS011;34859;51.608;11.462;2022-08-21T07:34:42;4.05;;;1.35;;
49041;SDS011;34859;51.608;11.462;2022-08-21T07:37:26;3.17;;;1.60;;
49041;SDS011;34859;51.608;11.462;2022-08-21T07:40:08;2.70;;;1.80;;
49041;SDS011;34859;51.608;11.462;2022-08-21T07:42:52;1.73;;;1.13;;
49041;SDS011;34859;51.608;11.462;2022-08-21T07:45:37;2.47;;;1.95;;
49041;SDS011;34859;51.608;11.462;2022-08-21T07:48:21;3.67;;;1.77;;
49041;SDS011;34859;51.608;11.462;2022-08-21T07:51:07;2.53;;;1.40;;
49041;SDS011;34859;51.608;11.462;2022-08-21T07:53:53;1.90;;;1.40;;
49041;SDS011;34859;51.608;11.462;2022-08-21T07:56:39;1.25;;;1.15;;
49041;SDS011;34859;51.608;11.462;2022-08-21T07:59:23;3.03;;;1.40;;
49041;SDS011;34859;51.608;11.462;2022-08-21T08:02:07;5.55;;;1.52;;
49041;SDS011;34859;51.608;11.462;2022-08-21T08:04:51;3.30;;;1.30;;
49041;SDS011;34859;51.608;11.462;2022-08-21T08:07:35;4.40;;;1.37;;
49041;SDS011;34859;51.608;11.462;2022-08-21T08:10:20;3.25;;;1.45;;
49041;SDS011;34859;51.608;11.462;2022-08-21T08:13:06;1.40;;;1.30;;
49041;SDS011;34859;51.608;11.462;2022-08-21T08:15:50;2.45;;;1.50;;
49041;SDS011;34859;51.608;11.462;2022-08-21T08:18:35;2.47;;;1.40;;
49041;SDS011;34859;51.608;11.462;2022-08-21T08:21:19;2.80;;;1.95;;
49041;SDS011;34859;51.608;11.462;2022-08-21T08:24:04;3.03;;;1.60;;
49041;SDS011;34859;51.608;11.462;2022-08-21T08:26:48;2.70;;;1.40;;
49041;SDS011;34859;51.608;11.462;2022-08-21T08:29:32;2.75;;;1.40;;
49041;SDS011;34859;51.608;11.462;2022-08-21T08:32:16;2.97;;;1.40;;
49041;SDS011;34859;51.608;11.462;2022-08-21T08:35:00;5.28;;;1.40;;
49041;SDS011;34859;51.608;11.462;2022-08-21T08:37:45;4.43;;;1.63;;
49041;SDS011;34859;51.608;11.462;2022-08-21T08:40:35;2.83;;;1.30;;
49041;SDS011;34859;51.608;11.462;2022-08-21T08:43:51;3.33;;;1.73;;
49041;SDS011;34859;51.608;11.462;2022-08-21T08:46:46;2.08;;;1.55;;
49041;SDS011;34859;51.608;11.462;2022-08-21T08:52:52;3.65;;;1.30;;
49041;SDS011;34859;51.608;11.462;2022-08-21T08:55:44;3.28;;;1.65;;
49041;SDS011;34859;51.608;11.462;2022-08-21T09:01:18;2.80;;;1.58;;
49041;SDS011;34859;51.608;11.462;2022-08-21T09:04:04;3.28;;;1.65;;
49041;SDS011;34859;51.608;11.462;2022-08-21T09:12:52;3.40;;;1.63;;
49041;SDS011;34859;51.608;11.462;2022-08-21T09:18:37;1.30;;;1.00;;
49041;SDS011;34859;51.608;11.462;2022-08-21T09:24:33;3.92;;;1.30;;
49041;SDS011;34859;51.608;11.462;2022-08-21T09:27:35;2.92;;;1.48;;
49041;SDS011;34859;51.608;11.462;2022-08-21T09:30:31;1.75;;;1.48;;
49041;SDS011;34859;51.608;11.462;2022-08-21T09:33:16;3.30;;;1.50;;
49041;SDS011;34859;51.608;11.462;2022-08-21T09:36:01;3.50;;;1.70;;
49041;SDS011;34859;51.608;11.462;2022-08-21T09:38:51;2.58;;;1.38;;
49041;SDS011;34859;51.608;11.462;2022-08-21T09:41:37;6.13;;;1.55;;
49041;SDS011;34859;51.608;11.462;2022-08-21T09:44:24;1.92;;;1.13;;
49041;SDS011;34859;51.608;11.462;2022-08-21T09:47:10;9.55;;;1.65;;
49041;SDS011;34859;51.608;11.462;2022-08-21T09:50:07;3.20;;;1.70;;
49041;SDS011;34859;51.608;11.462;2022-08-21T09:52:57;3.42;;;1.38;;
49041;SDS011;34859;51.608;11.462;2022-08-21T09:55:48;3.97;;;1.70;;
49041;SDS011;34859;51.608;11.462;2022-08-21T09:58:56;5.97;;;2.28;;
49041;SDS011;34859;51.608;11.462;2022-08-21T10:01:47;3.20;;;1.60;;
49041;SDS011;34859;51.608;11.462;2022-08-21T10:04:34;6.07;;;1.92;;
49041;SDS011;34859;51.608;11.462;2022-08-21T10:07:20;2.92;;;1.35;;
49041;SDS011;34859;51.608;11.462;2022-08-21T10:13:33;4.57;;;2.00;;
49041;SDS011;34859;51.608;11.462;2022-08-21T10:19:19;3.33;;;1.75;;
49041;SDS011;34859;51.608;11.462;2022-08-21T10:22:26;4.03;;;1.85;;
49041;SDS011;34859;51.608;11.462;2022-08-21T10:37:28;2.88;;;1.75;;
49041;SDS011;34859;51.608;11.462;2022-08-21T10:40:37;3.85;;;1.83;;
49041;SDS011;34859;51.608;11.462;2022-08-21T10:43:50;2.58;;;1.70;;
49041;SDS011;34859;51.608;11.462;2022-08-21T10:46:53;2.08;;;1.20;;
49041;SDS011;34859;51.608;11.462;2022-08-21T10:49:45;3.30;;;2.10;;
49041;SDS011;34859;51.608;11.462;2022-08-21T10:56:00;2.88;;;1.85;;
49041;SDS011;34859;51.608;11.462;2022-08-21T11:02:03;4.00;;;1.65;;
49041;SDS011;34859;51.608;11.462;2022-08-21T11:05:20;4.22;;;1.50;;
49041;SDS011;34859;51.608;11.462;2022-08-21T11:08:12;3.60;;;1.60;;
49041;SDS011;34859;51.608;11.462;2022-08-21T11:11:04;4.80;;;2.05;;
49041;SDS011;34859;51.608;11.462;2022-08-21T11:13:54;4.78;;;2.17;;
49041;SDS011;34859;51.608;11.462;2022-08-21T11:16:46;4.53;;;1.25;;
49041;SDS011;34859;51.608;11.462;2022-08-21T11:22:50;4.68;;;1.90;;
49041;SDS011;34859;51.608;11.462;2022-08-21T11:25:44;4.13;;;1.98;;
49041;SDS011;34859;51.608;11.462;2022-08-21T11:28:36;4.93;;;2.20;;
49041;SDS011;34859;51.608;11.462;2022-08-21T11:31:48;2.17;;;1.65;;
49041;SDS011;34859;51.608;11.462;2022-08-21T11:34:59;2.63;;;2.25;;
49041;SDS011;34859;51.608;11.462;2022-08-21T11:38:22;2.55;;;1.42;;
49041;SDS011;34859;51.608;11.462;2022-08-21T11:41:28;3.75;;;1.60;;
49041;SDS011;34859;51.608;11.462;2022-08-21T11:44:18;4.47;;;1.80;;
49041;SDS011;34859;51.608;11.462;2022-08-21T11:47:15;3.20;;;1.67;;
49041;SDS011;34859;51.608;11.462;2022-08-21T11:50:16;4.10;;;1.83;;
49041;SDS011;34859;51.608;11.462;2022-08-21T11:53:14;6.90;;;2.08;;
49041;SDS011;34859;51.608;11.462;2022-08-21T11:56:12;2.30;;;2.10;;
49041;SDS011;34859;51.608;11.462;2022-08-21T11:59:20;2.38;;;1.88;;
49041;SDS011;34859;51.608;11.462;2022-08-21T12:02:14;2.38;;;1.95;;
49041;SDS011;34859;51.608;11.462;2022-08-21T12:05:06;2.83;;;1.67;;
49041;SDS011;34859;51.608;11.462;2022-08-21T12:08:04;4.30;;;1.95;;
49041;SDS011;34859;51.608;11.462;2022-08-21T12:13:58;6.18;;;2.08;;
49041;SDS011;34859;51.608;11.462;2022-08-21T12:16:49;5.40;;;1.92;;
49041;SDS011;34859;51.608;11.462;2022-08-21T12:22:18;1.43;;;1.33;;
49041;SDS011;34859;51.608;11.462;2022-08-21T12:25:06;3.25;;;1.80;;
49041;SDS011;34859;51.608;11.462;2022-08-21T12:27:53;3.03;;;1.70;;
49041;SDS011;34859;51.608;11.462;2022-08-21T12:30:50;2.38;;;1.55;;
49041;SDS011;34859;51.608;11.462;2022-08-21T12:33:35;4.00;;;1.80;;
49041;SDS011;34859;51.608;11.462;2022-08-21T12:36:24;6.10;;;1.80;;
49041;SDS011;34859;51.608;11.462;2022-08-21T12:39:15;2.08;;;1.60;;
49041;SDS011;34859;51.608;11.462;2022-08-21T12:42:19;4.57;;;2.00;;
49041;SDS011;34859;51.608;11.462;2022-08-21T12:45:15;2.80;;;1.90;;
49041;SDS011;34859;51.608;11.462;2022-08-21T12:50:56;5.28;;;1.98;;
49041;SDS011;34859;51.608;11.462;2022-08-21T12:53:49;5.15;;;1.75;;
49041;SDS011;34859;51.608;11.462;2022-08-21T12:56:39;3.55;;;1.65;;
49041;SDS011;34859;51.608;11.462;2022-08-21T12:59:23;3.45;;;1.83;;
49041;SDS011;34859;51.608;11.462;2022-08-21T13:02:18;3.53;;;1.83;;
49041;SDS011;34859;51.608;11.462;2022-08-21T13:05:07;4.38;;;2.13;;
49041;SDS011;34859;51.608;11.462;2022-08-21T13:07:56;5.28;;;1.60;;
49041;SDS011;34859;51.608;11.462;2022-08-21T13:10:41;2.83;;;1.83;;
49041;SDS011;34859;51.608;11.462;2022-08-21T13:13:28;2.90;;;1.83;;
49041;SDS011;34859;51.608;11.462;2022-08-21T13:16:14;3.47;;;1.88;;
49041;SDS011;34859;51.608;11.462;2022-08-21T13:19:11;2.67;;;1.70;;
49041;SDS011;34859;51.608;11.462;2022-08-21T13:22:01;6.03;;;1.98;;
49041;SDS011;34859;51.608;11.462;2022-08-21T13:24:47;2.45;;;1.90;;
49041;SDS011;34859;51.608;11.462;2022-08-21T13:27:31;6.28;;;2.38;;
49041;SDS011;34859;51.608;11.462;2022-08-21T13:30:20;2.85;;;1.90;;
49041;SDS011;34859;51.608;11.462;2022-08-21T13:33:06;2.15;;;1.95;;
49041;SDS011;34859;51.608;11.462;2022-08-21T13:38:41;4.88;;;2.05;;
49041;SDS011;34859;51.608;11.462;2022-08-21T13:41:29;4.35;;;1.60;;
49041;SDS011;34859;51.608;11.462;2022-08-21T13:47:04;5.78;;;2.10;;
49041;SDS011;34859;51.608;11.462;2022-08-21T13:49:50;4.03;;;2.17;;
49041;SDS011;34859;51.608;11.462;2022-08-21T13:52:44;2.15;;;1.85;;
49041;SDS011;34859;51.608;11.462;2022-08-21T13:55:49;2.55;;;1.67;;
49041;SDS011;34859;51.608;11.462;2022-08-21T13:58:45;2.22;;;1.65;;
49041;SDS011;34859;51.608;11.462;2022-08-21T14:01:33;4.00;;;1.65;;
49041;SDS011;34859;51.608;11.462;2022-08-21T14:04:24;3.63;;;1.80;;
49041;SDS011;34859;51.608;11.462;2022-08-21T14:07:15;4.20;;;1.95;;
49041;SDS011;34859;51.608;11.462;2022-08-21T14:10:23;4.97;;;2.17;;
49041;SDS011;34859;51.608;11.462;2022-08-21T14:13:07;2.57;;;1.77;;
49041;SDS011;34859;51.608;11.462;2022-08-21T14:15:58;3.53;;;2.08;;
49041;SDS011;34859;51.608;11.462;2022-08-21T14:18:48;2.05;;;1.73;;
49041;SDS011;34859;51.608;11.462;2022-08-21T14:21:44;3.55;;;2.00;;
49041;SDS011;34859;51.608;11.462;2022-08-21T14:24:32;2.55;;;2.00;;
49041;SDS011;34859;51.608;11.462;2022-08-21T14:27:23;2.90;;;1.70;;
49041;SDS011;34859;51.608;11.462;2022-08-21T14:30:12;3.47;;;1.90;;
49041;SDS011;34859;51.608;11.462;2022-08-21T14:33:01;2.40;;;1.70;;
49041;SDS011;34859;51.608;11.462;2022-08-21T14:35:47;4.35;;;1.83;;
49041;SDS011;34859;51.608;11.462;2022-08-21T14:38:31;3.85;;;2.03;;
49041;SDS011;34859;51.608;11.462;2022-08-21T14:41:21;1.70;;;1.60;;
49041;SDS011;34859;51.608;11.462;2022-08-21T14:44:07;2.70;;;1.75;;
49041;SDS011;34859;51.608;11.462;2022-08-21T14:46:52;2.88;;;1.77;;
49041;SDS011;34859;51.608;11.462;2022-08-21T14:52:21;2.63;;;1.85;;
49041;SDS011;34859;51.608;11.462;2022-08-21T14:55:06;4.10;;;1.80;;
49041;SDS011;34859;51.608;11.462;2022-08-21T14:57:54;4.00;;;2.30;;
49041;SDS011;34859;51.608;11.462;2022-08-21T15:00:40;6.13;;;2.08;;
49041;SDS011;34859;51.608;11.462;2022-08-21T15:03:25;3.78;;;1.90;;
49041;SDS011;34859;51.608;11.462;2022-08-21T15:06:09;2.60;;;2.00;;
49041;SDS011;34859;51.608;11.462;2022-08-21T15:08:54;2.30;;;2.10;;
49041;SDS011;34859;51.608;11.462;2022-08-21T15:11:38;4.28;;;2.17;;
49041;SDS011;34859;51.608;11.462;2022-08-21T15:14:24;3.55;;;1.98;;
49041;SDS011;34859;51.608;11.462;2022-08-21T15:17:11;3.33;;;1.88;;
49041;SDS011;34859;51.608;11.462;2022-08-21T15:19:55;2.33;;;1.48;;
49041;SDS011;34859;51.608;11.462;2022-08-21T15:22:40;2.30;;;1.95;;
49041;SDS011;34859;51.608;11.462;2022-08-21T15:25:24;2.72;;;2.05;;
49041;SDS011;34859;51.608;11.462;2022-08-21T15:28:05;2.75;;;1.90;;
49041;SDS011;34859;51.608;11.462;2022-08-21T15:33:35;3.60;;;2.20;;
49041;SDS011;34859;51.608;11.462;2022-08-21T15:36:19;2.67;;;1.98;;
49041;SDS011;34859;51.608;11.462;2022-08-21T15:39:03;4.75;;;1.63;;
49041;SDS011;34859;51.608;11.462;2022-08-21T15:41:47;4.10;;;1.92;;
49041;SDS011;34859;51.608;11.462;2022-08-21T15:44:32;2.17;;;1.63;;
49041;SDS011;34859;51.608;11.462;2022-08-21T15:47:21;2.03;;;1.40;;
49041;SDS011;34859;51.608;11.462;2022-08-21T15:50:06;3.53;;;1.67;;
49041;SDS011;34859;51.608;11.462;2022-08-21T15:52:52;2.35;;;1.75;;
49041;SDS011;34859;51.608;11.462;2022-08-21T15:55:36;6.30;;;1.90;;
49041;SDS011;34859;51.608;11.462;2022-08-21T15:58:21;4.57;;;1.73;;
49041;SDS011;34859;51.608;11.462;2022-08-21T16:03:50;3.88;;;1.90;;
49041;SDS011;34859;51.608;11.462;2022-08-21T16:06:36;2.85;;;1.75;;
49041;SDS011;34859;51.608;11.462;2022-08-21T16:09:20;1.90;;;1.73;;
49041;SDS011;34859;51.608;11.462;2022-08-21T16:12:06;1.58;;;1.42;;
49041;SDS011;34859;51.608;11.462;2022-08-21T16:14:50;2.20;;;1.80;;
49041;SDS011;34859;51.608;11.462;2022-08-21T16:17:36;2.38;;;1.83;;
49041;SDS011;34859;51.608;11.462;2022-08-21T16:20:27;4.50;;;1.95;;
49041;SDS011;34859;51.608;11.462;2022-08-21T16:23:12;2.08;;;1.63;;
49041;SDS011;34859;51.608;11.462;2022-08-21T16:28:42;3.65;;;1.80;;
49041;SDS011;34859;51.608;11.462;2022-08-21T16:31:29;3.45;;;2.13;;
49041;SDS011;34859;51.608;11.462;2022-08-21T16:34:15;4.63;;;2.63;;
49041;SDS011;34859;51.608;11.462;2022-08-21T16:37:03;1.88;;;1.77;;
49041;SDS011;34859;51.608;11.462;2022-08-21T16:39:47;2.03;;;1.92;;
49041;SDS011;34859;51.608;11.462;2022-08-21T16:42:32;2.85;;;1.90;;
49041;SDS011;34859;51.608;11.462;2022-08-21T16:45:18;1.80;;;1.67;;
49041;SDS011;34859;51.608;11.462;2022-08-21T16:48:06;4.32;;;2.10;;
49041;SDS011;34859;51.608;11.462;2022-08-21T16:50:49;2.47;;;1.88;;
49041;SDS011;34859;51.608;11.462;2022-08-21T16:53:33;2.25;;;1.48;;
49041;SDS011;34859;51.608;11.462;2022-08-21T16:59:03;3.13;;;1.75;;
49041;SDS011;34859;51.608;11.462;2022-08-21T17:01:48;3.75;;;2.25;;
49041;SDS011;34859;51.608;11.462;2022-08-21T17:04:32;2.30;;;2.00;;
49041;SDS011;34859;51.608;11.462;2022-08-21T17:07:17;4.22;;;2.13;;
49041;SDS011;34859;51.608;11.462;2022-08-21T17:10:01;2.60;;;1.70;;
49041;SDS011;34859;51.608;11.462;2022-08-21T17:12:48;2.92;;;1.52;;
49041;SDS011;34859;51.608;11.462;2022-08-21T17:15:38;4.63;;;1.92;;
49041;SDS011;34859;51.608;11.462;2022-08-21T17:18:23;2.50;;;1.80;;
49041;SDS011;34859;51.608;11.462;2022-08-21T17:21:08;2.45;;;2.03;;
49041;SDS011;34859;51.608;11.462;2022-08-21T17:23:52;1.98;;;1.67;;
49041;SDS011;34859;51.608;11.462;2022-08-21T17:26:34;2.10;;;1.90;;
49041;SDS011;34859;51.608;11.462;2022-08-21T17:29:19;2.58;;;2.38;;
49041;SDS011;34859;51.608;11.462;2022-08-21T17:32:08;2.60;;;2.13;;
49041;SDS011;34859;51.608;11.462;2022-08-21T17:34:54;3.53;;;2.50;;
49041;SDS011;34859;51.608;11.462;2022-08-21T17:37:38;1.97;;;1.80;;
49041;SDS011;34859;51.608;11.462;2022-08-21T17:40:20;3.20;;;1.90;;
49041;SDS011;34859;51.608;11.462;2022-08-21T17:43:01;2.03;;;1.83;;
49041;SDS011;34859;51.608;11.462;2022-08-21T17:45:46;2.10;;;1.90;;
49041;SDS011;34859;51.608;11.462;2022-08-21T17:48:30;1.65;;;1.48;;
49041;SDS011;34859;51.608;11.462;2022-08-21T17:51:12;2.00;;;1.70;;
49041;SDS011;34859;51.608;11.462;2022-08-21T17:53:56;2.10;;;1.87;;
49041;SDS011;34859;51.608;11.462;2022-08-21T17:56:40;2.25;;;1.75;;
49041;SDS011;34859;51.608;11.462;2022-08-21T17:59:25;1.90;;;1.67;;
49041;SDS011;34859;51.608;11.462;2022-08-21T18:02:10;2.30;;;1.58;;
49041;SDS011;34859;51.608;11.462;2022-08-21T18:04:56;2.40;;;2.20;;
49041;SDS011;34859;51.608;11.462;2022-08-21T18:07:41;3.25;;;1.98;;